sensor_id;sensor_type;location;lat;lon;timestamp;P1;durP1;ratioP1;P2;durP2;ratioP2
80101;SDS011;69407;44.966;19.622;2023-12-07T00:00:40;27.17;;;12.70;;
80101;SDS011;69407;44.966;19.622;2023-12-07T00:03:06;27.52;;;13.20;;
80101;SDS011;69407;44.966;19.622;2023-12-07T00:05:32;25.02;;;11.45;;
80101;SDS011;69407;44.966;19.622;2023-12-07T00:07:58;26.33;;;13.40;;
80101;SDS011;69407;44.966;19.622;2023-12-07T00:10:23;27.48;;;12.50;;
80101;SDS011;69407;44.966;19.622;2023-12-07T00:12:48;28.70;;;13.32;;
80101;SDS011;69407;44.966;19.622;2023-12-07T00:15:14;25.27;;;12.30;;
80101;SDS011;69407;44.966;19.622;2023-12-07T00:17:39;28.25;;;13.23;;
80101;SDS011;69407;44.966;19.622;2023-12-07T00:20:05;27.55;;;13.30;;
80101;SDS011;69407;44.966;19.622;2023-12-07T00:22:31;28.20;;;12.18;;
80101;SDS011;69407;44.966;19.622;2023-12-07T00:24:56;25.48;;;12.35;;
80101;SDS011;69407;44.966;19.622;2023-12-07T00:27:22;29.15;;;13.43;;
80101;SDS011;69407;44.966;19.622;2023-12-07T00:29:48;29.48;;;13.13;;
80101;SDS011;69407;44.966;19.622;2023-12-07T00:32:13;33.30;;;14.90;;
80101;SDS011;69407;44.966;19.622;2023-12-07T00:34:39;26.77;;;13.30;;
80101;SDS011;69407;44.966;19.622;2023-12-07T00:37:04;27.75;;;12.68;;
80101;SDS011;69407;44.966;19.622;2023-12-07T00:39:30;24.65;;;12.73;;
80101;SDS011;69407;44.966;19.622;2023-12-07T00:41:55;27.60;;;11.80;;
80101;SDS011;69407;44.966;19.622;2023-12-07T00:44:21;28.17;;;12.70;;
80101;SDS011;69407;44.966;19.622;2023-12-07T00:46:46;22.83;;;11.02;;
80101;SDS011;69407;44.966;19.622;2023-12-07T00:49:12;28.35;;;13.15;;
80101;SDS011;69407;44.966;19.622;2023-12-07T00:51:37;28.52;;;12.75;;
80101;SDS011;69407;44.966;19.622;2023-12-07T00:54:03;27.30;;;12.82;;
80101;SDS011;69407;44.966;19.622;2023-12-07T00:56:29;25.60;;;12.70;;
80101;SDS011;69407;44.966;19.622;2023-12-07T00:58:54;27.92;;;13.00;;
80101;SDS011;69407;44.966;19.622;2023-12-07T01:01:19;29.20;;;13.55;;
80101;SDS011;69407;44.966;19.622;2023-12-07T01:03:45;28.15;;;11.88;;
80101;SDS011;69407;44.966;19.622;2023-12-07T01:06:11;26.05;;;12.73;;
80101;SDS011;69407;44.966;19.622;2023-12-07T01:08:36;24.27;;;12.15;;
80101;SDS011;69407;44.966;19.622;2023-12-07T01:11:03;27.35;;;10.98;;
80101;SDS011;69407;44.966;19.622;2023-12-07T01:13:29;23.90;;;11.18;;
80101;SDS011;69407;44.966;19.622;2023-12-07T01:15:55;23.90;;;10.55;;
80101;SDS011;69407;44.966;19.622;2023-12-07T01:18:21;23.00;;;11.38;;
80101;SDS011;69407;44.966;19.622;2023-12-07T01:20:46;25.13;;;11.25;;
80101;SDS011;69407;44.966;19.622;2023-12-07T01:23:13;21.92;;;10.15;;
80101;SDS011;69407;44.966;19.622;2023-12-07T01:25:39;26.75;;;12.80;;
80101;SDS011;69407;44.966;19.622;2023-12-07T01:28:04;23.42;;;10.93;;
80101;SDS011;69407;44.966;19.622;2023-12-07T01:30:30;20.75;;;9.82;;
80101;SDS011;69407;44.966;19.622;2023-12-07T01:32:55;25.00;;;11.48;;
80101;SDS011;69407;44.966;19.622;2023-12-07T01:35:21;20.15;;;9.52;;
80101;SDS011;69407;44.966;19.622;2023-12-07T01:37:46;26.60;;;12.13;;
80101;SDS011;69407;44.966;19.622;2023-12-07T01:40:12;28.85;;;11.98;;
80101;SDS011;69407;44.966;19.622;2023-12-07T01:42:40;27.38;;;11.70;;
80101;SDS011;69407;44.966;19.622;2023-12-07T01:45:05;27.08;;;11.23;;
80101;SDS011;69407;44.966;19.622;2023-12-07T01:47:32;29.75;;;13.00;;
80101;SDS011;69407;44.966;19.622;2023-12-07T01:50:00;28.15;;;13.50;;
80101;SDS011;69407;44.966;19.622;2023-12-07T01:52:26;28.95;;;13.90;;
80101;SDS011;69407;44.966;19.622;2023-12-07T01:54:54;23.50;;;10.95;;
80101;SDS011;69407;44.966;19.622;2023-12-07T01:57:20;22.85;;;10.60;;
80101;SDS011;69407;44.966;19.622;2023-12-07T01:59:46;26.77;;;12.77;;
80101;SDS011;69407;44.966;19.622;2023-12-07T02:02:11;21.27;;;10.88;;
80101;SDS011;69407;44.966;19.622;2023-12-07T02:04:37;20.67;;;9.32;;
80101;SDS011;69407;44.966;19.622;2023-12-07T02:07:03;25.92;;;11.48;;
80101;SDS011;69407;44.966;19.622;2023-12-07T02:09:29;22.77;;;10.20;;
80101;SDS011;69407;44.966;19.622;2023-12-07T02:11:55;25.15;;;11.00;;
80101;SDS011;69407;44.966;19.622;2023-12-07T02:14:21;23.02;;;11.23;;
80101;SDS011;69407;44.966;19.622;2023-12-07T02:16:51;22.35;;;10.07;;
80101;SDS011;69407;44.966;19.622;2023-12-07T02:19:27;20.92;;;9.90;;
80101;SDS011;69407;44.966;19.622;2023-12-07T02:21:58;19.67;;;9.18;;
80101;SDS011;69407;44.966;19.622;2023-12-07T02:24:27;25.75;;;10.88;;
80101;SDS011;69407;44.966;19.622;2023-12-07T02:26:56;22.27;;;10.07;;
80101;SDS011;69407;44.966;19.622;2023-12-07T02:29:21;24.85;;;11.63;;
80101;SDS011;69407;44.966;19.622;2023-12-07T02:31:47;21.33;;;10.27;;
80101;SDS011;69407;44.966;19.622;2023-12-07T02:34:12;21.33;;;10.38;;
80101;SDS011;69407;44.966;19.622;2023-12-07T02:36:38;17.88;;;7.70;;
80101;SDS011;69407;44.966;19.622;2023-12-07T02:39:05;23.08;;;10.32;;
80101;SDS011;69407;44.966;19.622;2023-12-07T02:41:34;19.40;;;9.77;;
80101;SDS011;69407;44.966;19.622;2023-12-07T02:44:01;18.85;;;9.63;;
80101;SDS011;69407;44.966;19.622;2023-12-07T02:46:27;18.73;;;9.18;;
80101;SDS011;69407;44.966;19.622;2023-12-07T02:48:53;20.33;;;9.25;;
80101;SDS011;69407;44.966;19.622;2023-12-07T02:51:18;24.27;;;10.05;;
80101;SDS011;69407;44.966;19.622;2023-12-07T02:53:44;26.65;;;10.43;;
80101;SDS011;69407;44.966;19.622;2023-12-07T02:56:09;22.00;;;10.43;;
80101;SDS011;69407;44.966;19.622;2023-12-07T02:58:36;22.17;;;10.68;;
80101;SDS011;69407;44.966;19.622;2023-12-07T03:01:01;21.00;;;9.27;;
80101;SDS011;69407;44.966;19.622;2023-12-07T03:03:27;21.58;;;10.65;;
80101;SDS011;69407;44.966;19.622;2023-12-07T03:05:52;18.88;;;9.88;;
80101;SDS011;69407;44.966;19.622;2023-12-07T03:08:17;24.00;;;10.25;;
80101;SDS011;69407;44.966;19.622;2023-12-07T03:10:43;19.75;;;9.23;;
80101;SDS011;69407;44.966;19.622;2023-12-07T03:13:08;19.00;;;8.93;;
80101;SDS011;69407;44.966;19.622;2023-12-07T03:15:34;20.52;;;8.98;;
80101;SDS011;69407;44.966;19.622;2023-12-07T03:17:59;17.48;;;8.00;;
80101;SDS011;69407;44.966;19.622;2023-12-07T03:20:25;19.05;;;8.10;;
80101;SDS011;69407;44.966;19.622;2023-12-07T03:22:51;15.85;;;7.50;;
80101;SDS011;69407;44.966;19.622;2023-12-07T03:25:16;19.05;;;7.90;;
80101;SDS011;69407;44.966;19.622;2023-12-07T03:27:42;14.55;;;7.28;;
80101;SDS011;69407;44.966;19.622;2023-12-07T03:30:07;16.63;;;7.35;;
80101;SDS011;69407;44.966;19.622;2023-12-07T03:32:33;14.00;;;6.90;;
80101;SDS011;69407;44.966;19.622;2023-12-07T03:34:58;10.02;;;5.05;;
80101;SDS011;69407;44.966;19.622;2023-12-07T03:37:24;13.30;;;7.20;;
80101;SDS011;69407;44.966;19.622;2023-12-07T03:39:49;14.80;;;7.50;;
80101;SDS011;69407;44.966;19.622;2023-12-07T03:42:15;14.65;;;5.88;;
80101;SDS011;69407;44.966;19.622;2023-12-07T03:44:42;12.65;;;6.47;;
80101;SDS011;69407;44.966;19.622;2023-12-07T03:47:08;12.90;;;6.00;;
80101;SDS011;69407;44.966;19.622;2023-12-07T03:49:34;12.10;;;5.47;;
80101;SDS011;69407;44.966;19.622;2023-12-07T03:52:00;12.30;;;6.10;;
80101;SDS011;69407;44.966;19.622;2023-12-07T03:54:26;12.30;;;6.45;;
80101;SDS011;69407;44.966;19.622;2023-12-07T03:56:52;14.45;;;7.25;;
80101;SDS011;69407;44.966;19.622;2023-12-07T03:59:17;12.60;;;6.15;;
80101;SDS011;69407;44.966;19.622;2023-12-07T04:01:43;12.65;;;5.53;;
80101;SDS011;69407;44.966;19.622;2023-12-07T04:04:08;12.15;;;6.55;;
80101;SDS011;69407;44.966;19.622;2023-12-07T04:06:34;10.75;;;5.50;;
80101;SDS011;69407;44.966;19.622;2023-12-07T04:08:59;12.90;;;6.25;;
80101;SDS011;69407;44.966;19.622;2023-12-07T04:11:25;10.98;;;5.30;;
80101;SDS011;69407;44.966;19.622;2023-12-07T04:13:50;13.32;;;6.72;;
80101;SDS011;69407;44.966;19.622;2023-12-07T04:16:15;12.57;;;6.20;;
80101;SDS011;69407;44.966;19.622;2023-12-07T04:18:41;11.82;;;6.63;;
80101;SDS011;69407;44.966;19.622;2023-12-07T04:21:07;11.10;;;6.22;;
80101;SDS011;69407;44.966;19.622;2023-12-07T04:23:33;11.60;;;6.03;;
80101;SDS011;69407;44.966;19.622;2023-12-07T04:25:58;12.38;;;6.03;;
80101;SDS011;69407;44.966;19.622;2023-12-07T04:28:24;14.02;;;6.32;;
80101;SDS011;69407;44.966;19.622;2023-12-07T04:30:50;11.98;;;6.50;;
80101;SDS011;69407;44.966;19.622;2023-12-07T04:33:15;12.02;;;6.45;;
80101;SDS011;69407;44.966;19.622;2023-12-07T04:35:40;12.77;;;6.85;;
80101;SDS011;69407;44.966;19.622;2023-12-07T04:38:06;15.25;;;6.93;;
80101;SDS011;69407;44.966;19.622;2023-12-07T04:40:32;10.77;;;5.85;;
80101;SDS011;69407;44.966;19.622;2023-12-07T04:42:57;13.70;;;7.55;;
80101;SDS011;69407;44.966;19.622;2023-12-07T04:45:23;12.50;;;6.25;;
80101;SDS011;69407;44.966;19.622;2023-12-07T04:47:48;15.05;;;6.70;;
80101;SDS011;69407;44.966;19.622;2023-12-07T04:50:14;16.38;;;8.35;;
80101;SDS011;69407;44.966;19.622;2023-12-07T04:52:40;14.05;;;6.75;;
80101;SDS011;69407;44.966;19.622;2023-12-07T04:55:05;16.25;;;8.55;;
80101;SDS011;69407;44.966;19.622;2023-12-07T04:57:32;16.10;;;8.27;;
80101;SDS011;69407;44.966;19.622;2023-12-07T04:59:59;14.60;;;7.53;;
80101;SDS011;69407;44.966;19.622;2023-12-07T05:02:24;16.55;;;8.20;;
80101;SDS011;69407;44.966;19.622;2023-12-07T05:04:50;18.73;;;9.15;;
80101;SDS011;69407;44.966;19.622;2023-12-07T05:07:15;15.13;;;8.20;;
80101;SDS011;69407;44.966;19.622;2023-12-07T05:09:41;18.60;;;8.80;;
80101;SDS011;69407;44.966;19.622;2023-12-07T05:12:06;17.88;;;9.27;;
80101;SDS011;69407;44.966;19.622;2023-12-07T05:14:32;11.77;;;5.85;;
80101;SDS011;69407;44.966;19.622;2023-12-07T05:16:58;16.83;;;8.02;;
80101;SDS011;69407;44.966;19.622;2023-12-07T05:19:23;18.42;;;8.85;;
80101;SDS011;69407;44.966;19.622;2023-12-07T05:21:50;19.10;;;9.73;;
80101;SDS011;69407;44.966;19.622;2023-12-07T05:24:16;17.95;;;9.63;;
80101;SDS011;69407;44.966;19.622;2023-12-07T05:26:42;16.60;;;7.07;;
80101;SDS011;69407;44.966;19.622;2023-12-07T05:29:08;19.00;;;8.52;;
80101;SDS011;69407;44.966;19.622;2023-12-07T05:31:35;15.93;;;7.68;;
80101;SDS011;69407;44.966;19.622;2023-12-07T05:34:00;23.50;;;9.93;;
80101;SDS011;69407;44.966;19.622;2023-12-07T05:36:26;18.83;;;9.15;;
80101;SDS011;69407;44.966;19.622;2023-12-07T05:38:52;18.33;;;9.75;;
80101;SDS011;69407;44.966;19.622;2023-12-07T05:41:17;22.20;;;9.68;;
80101;SDS011;69407;44.966;19.622;2023-12-07T05:43:43;19.45;;;10.93;;
80101;SDS011;69407;44.966;19.622;2023-12-07T05:46:08;22.45;;;11.43;;
80101;SDS011;69407;44.966;19.622;2023-12-07T05:48:34;21.60;;;10.43;;
80101;SDS011;69407;44.966;19.622;2023-12-07T05:51:01;21.45;;;10.75;;
80101;SDS011;69407;44.966;19.622;2023-12-07T05:53:27;20.77;;;10.15;;
80101;SDS011;69407;44.966;19.622;2023-12-07T05:55:52;22.08;;;11.27;;
80101;SDS011;69407;44.966;19.622;2023-12-07T05:58:19;22.30;;;10.40;;
80101;SDS011;69407;44.966;19.622;2023-12-07T06:00:44;27.60;;;13.07;;
80101;SDS011;69407;44.966;19.622;2023-12-07T06:03:12;30.88;;;14.75;;
80101;SDS011;69407;44.966;19.622;2023-12-07T06:05:40;36.22;;;16.20;;
80101;SDS011;69407;44.966;19.622;2023-12-07T06:08:06;42.85;;;20.42;;
80101;SDS011;69407;44.966;19.622;2023-12-07T06:10:32;41.03;;;20.60;;
80101;SDS011;69407;44.966;19.622;2023-12-07T06:12:57;36.30;;;15.93;;
80101;SDS011;69407;44.966;19.622;2023-12-07T06:15:26;31.17;;;14.75;;
80101;SDS011;69407;44.966;19.622;2023-12-07T06:17:52;47.92;;;20.92;;
80101;SDS011;69407;44.966;19.622;2023-12-07T06:20:18;43.40;;;20.33;;
80101;SDS011;69407;44.966;19.622;2023-12-07T06:22:43;29.73;;;14.93;;
80101;SDS011;69407;44.966;19.622;2023-12-07T06:25:09;32.58;;;14.85;;
80101;SDS011;69407;44.966;19.622;2023-12-07T06:27:35;32.08;;;13.70;;
80101;SDS011;69407;44.966;19.622;2023-12-07T06:30:02;25.92;;;12.00;;
80101;SDS011;69407;44.966;19.622;2023-12-07T06:32:30;23.42;;;11.60;;
80101;SDS011;69407;44.966;19.622;2023-12-07T06:34:56;21.92;;;12.10;;
80101;SDS011;69407;44.966;19.622;2023-12-07T06:37:22;21.05;;;11.25;;
80101;SDS011;69407;44.966;19.622;2023-12-07T06:39:47;19.35;;;10.70;;
80101;SDS011;69407;44.966;19.622;2023-12-07T06:42:14;23.17;;;11.98;;
80101;SDS011;69407;44.966;19.622;2023-12-07T06:44:40;22.38;;;10.77;;
80101;SDS011;69407;44.966;19.622;2023-12-07T06:47:05;29.58;;;14.80;;
80101;SDS011;69407;44.966;19.622;2023-12-07T06:49:31;28.85;;;15.10;;
80101;SDS011;69407;44.966;19.622;2023-12-07T06:51:56;28.00;;;14.75;;
80101;SDS011;69407;44.966;19.622;2023-12-07T06:54:22;25.02;;;13.23;;
80101;SDS011;69407;44.966;19.622;2023-12-07T06:56:47;27.33;;;14.05;;
80101;SDS011;69407;44.966;19.622;2023-12-07T06:59:13;28.88;;;14.45;;
80101;SDS011;69407;44.966;19.622;2023-12-07T07:01:39;27.90;;;13.65;;
80101;SDS011;69407;44.966;19.622;2023-12-07T07:04:05;27.80;;;12.43;;
80101;SDS011;69407;44.966;19.622;2023-12-07T07:06:30;26.60;;;13.15;;
80101;SDS011;69407;44.966;19.622;2023-12-07T07:08:56;16.02;;;8.27;;
80101;SDS011;69407;44.966;19.622;2023-12-07T07:11:21;24.17;;;11.82;;
80101;SDS011;69407;44.966;19.622;2023-12-07T07:13:47;18.17;;;10.40;;
80101;SDS011;69407;44.966;19.622;2023-12-07T07:16:12;25.52;;;11.60;;
80101;SDS011;69407;44.966;19.622;2023-12-07T07:18:38;30.77;;;13.90;;
80101;SDS011;69407;44.966;19.622;2023-12-07T07:21:04;25.33;;;13.35;;
80101;SDS011;69407;44.966;19.622;2023-12-07T07:23:30;26.75;;;13.20;;
80101;SDS011;69407;44.966;19.622;2023-12-07T07:25:55;31.58;;;14.95;;
80101;SDS011;69407;44.966;19.622;2023-12-07T07:28:21;33.15;;;15.35;;
80101;SDS011;69407;44.966;19.622;2023-12-07T07:30:47;32.00;;;16.63;;
80101;SDS011;69407;44.966;19.622;2023-12-07T07:33:12;32.38;;;15.85;;
80101;SDS011;69407;44.966;19.622;2023-12-07T07:35:38;27.90;;;13.18;;
80101;SDS011;69407;44.966;19.622;2023-12-07T07:38:03;27.67;;;14.93;;
80101;SDS011;69407;44.966;19.622;2023-12-07T07:40:29;33.58;;;16.38;;
80101;SDS011;69407;44.966;19.622;2023-12-07T07:42:54;27.38;;;13.63;;
80101;SDS011;69407;44.966;19.622;2023-12-07T07:45:20;27.98;;;13.43;;
80101;SDS011;69407;44.966;19.622;2023-12-07T07:47:45;27.63;;;15.00;;
80101;SDS011;69407;44.966;19.622;2023-12-07T07:50:11;26.75;;;13.82;;
80101;SDS011;69407;44.966;19.622;2023-12-07T07:52:36;25.45;;;12.45;;
80101;SDS011;69407;44.966;19.622;2023-12-07T07:55:03;24.48;;;12.07;;
80101;SDS011;69407;44.966;19.622;2023-12-07T07:57:29;34.97;;;17.65;;
80101;SDS011;69407;44.966;19.622;2023-12-07T07:59:55;31.55;;;13.85;;
80101;SDS011;69407;44.966;19.622;2023-12-07T08:02:24;29.13;;;13.85;;
80101;SDS011;69407;44.966;19.622;2023-12-07T08:04:49;32.35;;;14.75;;
80101;SDS011;69407;44.966;19.622;2023-12-07T08:07:17;26.60;;;13.18;;
80101;SDS011;69407;44.966;19.622;2023-12-07T08:09:43;36.50;;;15.98;;
80101;SDS011;69407;44.966;19.622;2023-12-07T08:12:08;29.20;;;14.82;;
80101;SDS011;69407;44.966;19.622;2023-12-07T08:14:37;27.08;;;14.15;;
80101;SDS011;69407;44.966;19.622;2023-12-07T08:17:04;27.48;;;12.77;;
80101;SDS011;69407;44.966;19.622;2023-12-07T08:19:29;25.42;;;12.32;;
80101;SDS011;69407;44.966;19.622;2023-12-07T08:21:55;32.15;;;15.25;;
80101;SDS011;69407;44.966;19.622;2023-12-07T08:24:20;26.20;;;13.43;;
80101;SDS011;69407;44.966;19.622;2023-12-07T08:26:46;19.23;;;10.30;;
80101;SDS011;69407;44.966;19.622;2023-12-07T08:29:11;17.33;;;8.95;;
80101;SDS011;69407;44.966;19.622;2023-12-07T08:31:38;17.30;;;8.32;;
80101;SDS011;69407;44.966;19.622;2023-12-07T08:34:05;15.05;;;8.45;;
80101;SDS011;69407;44.966;19.622;2023-12-07T08:36:30;18.73;;;9.63;;
80101;SDS011;69407;44.966;19.622;2023-12-07T08:38:56;15.48;;;8.55;;
80101;SDS011;69407;44.966;19.622;2023-12-07T08:41:21;22.52;;;9.68;;
80101;SDS011;69407;44.966;19.622;2023-12-07T08:43:47;14.43;;;7.55;;
80101;SDS011;69407;44.966;19.622;2023-12-07T08:46:12;16.77;;;9.45;;
80101;SDS011;69407;44.966;19.622;2023-12-07T08:48:37;13.10;;;6.88;;
80101;SDS011;69407;44.966;19.622;2023-12-07T08:51:03;21.67;;;9.68;;
80101;SDS011;69407;44.966;19.622;2023-12-07T08:53:29;22.20;;;10.73;;
80101;SDS011;69407;44.966;19.622;2023-12-07T08:55:54;16.98;;;8.77;;
80101;SDS011;69407;44.966;19.622;2023-12-07T08:58:20;17.95;;;9.27;;
80101;SDS011;69407;44.966;19.622;2023-12-07T09:00:46;12.98;;;7.63;;
80101;SDS011;69407;44.966;19.622;2023-12-07T09:03:11;21.08;;;10.02;;
80101;SDS011;69407;44.966;19.622;2023-12-07T09:05:38;15.40;;;7.95;;
80101;SDS011;69407;44.966;19.622;2023-12-07T09:08:04;14.45;;;8.25;;
80101;SDS011;69407;44.966;19.622;2023-12-07T09:10:30;19.55;;;9.32;;
80101;SDS011;69407;44.966;19.622;2023-12-07T09:12:55;22.08;;;10.30;;
80101;SDS011;69407;44.966;19.622;2023-12-07T09:15:21;23.52;;;10.10;;
80101;SDS011;69407;44.966;19.622;2023-12-07T09:17:47;17.13;;;7.75;;
80101;SDS011;69407;44.966;19.622;2023-12-07T09:20:13;20.48;;;9.55;;
80101;SDS011;69407;44.966;19.622;2023-12-07T09:22:45;16.30;;;6.88;;
80101;SDS011;69407;44.966;19.622;2023-12-07T09:25:12;23.13;;;11.85;;
80101;SDS011;69407;44.966;19.622;2023-12-07T09:27:38;18.20;;;8.13;;
80101;SDS011;69407;44.966;19.622;2023-12-07T09:30:05;18.92;;;8.68;;
80101;SDS011;69407;44.966;19.622;2023-12-07T09:32:32;46.47;;;21.52;;
80101;SDS011;69407;44.966;19.622;2023-12-07T09:35:06;34.85;;;16.95;;
80101;SDS011;69407;44.966;19.622;2023-12-07T09:37:32;20.65;;;10.02;;
80101;SDS011;69407;44.966;19.622;2023-12-07T09:39:58;36.70;;;16.88;;
80101;SDS011;69407;44.966;19.622;2023-12-07T09:42:24;25.05;;;12.82;;
80101;SDS011;69407;44.966;19.622;2023-12-07T09:44:50;21.83;;;10.88;;
80101;SDS011;69407;44.966;19.622;2023-12-07T09:47:15;24.67;;;13.02;;
80101;SDS011;69407;44.966;19.622;2023-12-07T09:49:41;26.42;;;14.70;;
80101;SDS011;69407;44.966;19.622;2023-12-07T09:52:07;33.30;;;15.45;;
80101;SDS011;69407;44.966;19.622;2023-12-07T09:54:33;52.80;;;22.42;;
80101;SDS011;69407;44.966;19.622;2023-12-07T09:57:00;30.95;;;13.50;;
80101;SDS011;69407;44.966;19.622;2023-12-07T09:59:26;11.02;;;6.10;;
80101;SDS011;69407;44.966;19.622;2023-12-07T10:01:52;17.13;;;8.52;;
80101;SDS011;69407;44.966;19.622;2023-12-07T10:04:21;20.33;;;9.75;;
80101;SDS011;69407;44.966;19.622;2023-12-07T10:06:51;32.55;;;14.55;;
80101;SDS011;69407;44.966;19.622;2023-12-07T10:09:17;23.00;;;11.48;;
80101;SDS011;69407;44.966;19.622;2023-12-07T10:11:44;33.40;;;15.07;;
80101;SDS011;69407;44.966;19.622;2023-12-07T10:14:10;32.38;;;17.23;;
80101;SDS011;69407;44.966;19.622;2023-12-07T10:16:36;19.38;;;10.95;;
80101;SDS011;69407;44.966;19.622;2023-12-07T10:19:23;14.35;;;7.72;;
80101;SDS011;69407;44.966;19.622;2023-12-07T10:21:51;12.60;;;6.35;;
80101;SDS011;69407;44.966;19.622;2023-12-07T10:24:17;21.10;;;9.60;;
80101;SDS011;69407;44.966;19.622;2023-12-07T10:26:45;13.73;;;7.53;;
80101;SDS011;69407;44.966;19.622;2023-12-07T10:29:11;16.80;;;8.20;;
80101;SDS011;69407;44.966;19.622;2023-12-07T10:31:37;15.18;;;7.18;;
80101;SDS011;69407;44.966;19.622;2023-12-07T10:34:04;24.95;;;11.93;;
80101;SDS011;69407;44.966;19.622;2023-12-07T10:36:30;19.33;;;9.70;;
80101;SDS011;69407;44.966;19.622;2023-12-07T10:38:56;18.73;;;8.77;;
80101;SDS011;69407;44.966;19.622;2023-12-07T10:41:22;21.67;;;10.35;;
80101;SDS011;69407;44.966;19.622;2023-12-07T10:43:53;19.02;;;9.35;;
80101;SDS011;69407;44.966;19.622;2023-12-07T10:46:22;13.90;;;6.60;;
80101;SDS011;69407;44.966;19.622;2023-12-07T10:48:48;14.88;;;8.07;;
80101;SDS011;69407;44.966;19.622;2023-12-07T10:51:45;14.25;;;7.88;;
80101;SDS011;69407;44.966;19.622;2023-12-07T10:54:11;18.92;;;8.98;;
80101;SDS011;69407;44.966;19.622;2023-12-07T10:59:12;21.52;;;10.23;;
80101;SDS011;69407;44.966;19.622;2023-12-07T11:01:41;15.82;;;8.00;;
80101;SDS011;69407;44.966;19.622;2023-12-07T11:04:11;24.05;;;11.18;;
80101;SDS011;69407;44.966;19.622;2023-12-07T11:06:38;20.52;;;10.05;;
80101;SDS011;69407;44.966;19.622;2023-12-07T11:09:08;18.70;;;8.68;;
80101;SDS011;69407;44.966;19.622;2023-12-07T11:14:16;18.58;;;8.95;;
80101;SDS011;69407;44.966;19.622;2023-12-07T11:16:43;22.40;;;10.75;;
80101;SDS011;69407;44.966;19.622;2023-12-07T11:21:54;17.05;;;7.68;;
80101;SDS011;69407;44.966;19.622;2023-12-07T11:24:31;18.67;;;8.88;;
80101;SDS011;69407;44.966;19.622;2023-12-07T11:26:56;18.20;;;9.05;;
80101;SDS011;69407;44.966;19.622;2023-12-07T11:29:27;25.95;;;14.07;;
80101;SDS011;69407;44.966;19.622;2023-12-07T11:31:58;19.25;;;9.35;;
80101;SDS011;69407;44.966;19.622;2023-12-07T11:34:39;21.65;;;10.55;;
80101;SDS011;69407;44.966;19.622;2023-12-07T11:37:06;28.33;;;12.95;;
80101;SDS011;69407;44.966;19.622;2023-12-07T11:39:41;26.15;;;14.90;;
80101;SDS011;69407;44.966;19.622;2023-12-07T11:44:37;26.70;;;12.63;;
80101;SDS011;69407;44.966;19.622;2023-12-07T11:47:04;31.35;;;13.25;;
80101;SDS011;69407;44.966;19.622;2023-12-07T11:49:30;15.73;;;9.60;;
80101;SDS011;69407;44.966;19.622;2023-12-07T11:51:57;17.52;;;9.02;;
80101;SDS011;69407;44.966;19.622;2023-12-07T11:54:23;11.43;;;6.13;;
80101;SDS011;69407;44.966;19.622;2023-12-07T11:56:54;19.60;;;8.55;;
80101;SDS011;69407;44.966;19.622;2023-12-07T11:59:20;17.42;;;8.25;;
80101;SDS011;69407;44.966;19.622;2023-12-07T12:01:46;20.10;;;10.45;;
80101;SDS011;69407;44.966;19.622;2023-12-07T12:04:14;17.33;;;9.38;;
80101;SDS011;69407;44.966;19.622;2023-12-07T12:06:45;18.08;;;8.85;;
80101;SDS011;69407;44.966;19.622;2023-12-07T12:09:14;18.20;;;8.98;;
80101;SDS011;69407;44.966;19.622;2023-12-07T12:11:46;16.02;;;7.93;;
80101;SDS011;69407;44.966;19.622;2023-12-07T12:14:15;23.88;;;10.52;;
80101;SDS011;69407;44.966;19.622;2023-12-07T12:16:42;20.77;;;9.68;;
80101;SDS011;69407;44.966;19.622;2023-12-07T12:19:09;18.00;;;8.95;;
80101;SDS011;69407;44.966;19.622;2023-12-07T12:21:36;23.90;;;11.15;;
80101;SDS011;69407;44.966;19.622;2023-12-07T12:24:04;26.27;;;12.75;;
80101;SDS011;69407;44.966;19.622;2023-12-07T12:26:35;23.67;;;10.70;;
80101;SDS011;69407;44.966;19.622;2023-12-07T12:29:03;21.40;;;11.60;;
80101;SDS011;69407;44.966;19.622;2023-12-07T12:31:29;16.88;;;8.90;;
80101;SDS011;69407;44.966;19.622;2023-12-07T12:33:55;25.33;;;14.55;;
80101;SDS011;69407;44.966;19.622;2023-12-07T12:36:21;13.32;;;7.32;;
80101;SDS011;69407;44.966;19.622;2023-12-07T12:38:52;15.77;;;9.02;;
80101;SDS011;69407;44.966;19.622;2023-12-07T12:41:21;16.58;;;9.10;;
80101;SDS011;69407;44.966;19.622;2023-12-07T12:43:47;24.67;;;10.82;;
80101;SDS011;69407;44.966;19.622;2023-12-07T12:46:13;23.65;;;12.30;;
80101;SDS011;69407;44.966;19.622;2023-12-07T12:48:56;17.75;;;8.95;;
80101;SDS011;69407;44.966;19.622;2023-12-07T12:51:28;31.63;;;15.85;;
80101;SDS011;69407;44.966;19.622;2023-12-07T12:53:58;27.05;;;12.80;;
80101;SDS011;69407;44.966;19.622;2023-12-07T12:56:24;35.45;;;17.55;;
80101;SDS011;69407;44.966;19.622;2023-12-07T12:58:52;27.27;;;12.25;;
80101;SDS011;69407;44.966;19.622;2023-12-07T13:01:21;23.58;;;12.20;;
80101;SDS011;69407;44.966;19.622;2023-12-07T13:03:47;38.33;;;18.70;;
80101;SDS011;69407;44.966;19.622;2023-12-07T13:06:14;14.82;;;7.35;;
80101;SDS011;69407;44.966;19.622;2023-12-07T13:08:41;22.30;;;11.75;;
80101;SDS011;69407;44.966;19.622;2023-12-07T13:11:08;27.40;;;12.48;;
80101;SDS011;69407;44.966;19.622;2023-12-07T13:13:34;16.98;;;8.48;;
80101;SDS011;69407;44.966;19.622;2023-12-07T13:16:00;19.13;;;10.02;;
80101;SDS011;69407;44.966;19.622;2023-12-07T13:18:25;20.23;;;9.85;;
80101;SDS011;69407;44.966;19.622;2023-12-07T13:20:50;18.50;;;9.68;;
80101;SDS011;69407;44.966;19.622;2023-12-07T13:23:16;27.73;;;11.52;;
80101;SDS011;69407;44.966;19.622;2023-12-07T13:25:42;24.17;;;11.75;;
80101;SDS011;69407;44.966;19.622;2023-12-07T13:28:07;31.42;;;13.82;;
80101;SDS011;69407;44.966;19.622;2023-12-07T13:30:33;36.70;;;16.23;;
80101;SDS011;69407;44.966;19.622;2023-12-07T13:33:00;46.65;;;20.73;;
80101;SDS011;69407;44.966;19.622;2023-12-07T13:35:26;47.40;;;20.30;;
80101;SDS011;69407;44.966;19.622;2023-12-07T13:37:52;40.88;;;17.23;;
80101;SDS011;69407;44.966;19.622;2023-12-07T13:40:17;48.67;;;19.98;;
80101;SDS011;69407;44.966;19.622;2023-12-07T13:42:43;58.25;;;23.27;;
80101;SDS011;69407;44.966;19.622;2023-12-07T13:45:09;43.50;;;15.90;;
80101;SDS011;69407;44.966;19.622;2023-12-07T13:47:34;34.22;;;13.32;;
80101;SDS011;69407;44.966;19.622;2023-12-07T13:50:02;35.45;;;13.15;;
80101;SDS011;69407;44.966;19.622;2023-12-07T13:52:28;43.30;;;16.50;;
80101;SDS011;69407;44.966;19.622;2023-12-07T13:54:54;48.97;;;19.27;;
80101;SDS011;69407;44.966;19.622;2023-12-07T13:57:21;43.65;;;16.63;;
80101;SDS011;69407;44.966;19.622;2023-12-07T14:02:15;21.55;;;8.55;;
80101;SDS011;69407;44.966;19.622;2023-12-07T14:04:41;28.77;;;12.68;;
80101;SDS011;69407;44.966;19.622;2023-12-07T14:07:07;31.15;;;14.50;;
80101;SDS011;69407;44.966;19.622;2023-12-07T14:09:42;13.90;;;6.68;;
80101;SDS011;69407;44.966;19.622;2023-12-07T14:12:09;16.27;;;8.32;;
80101;SDS011;69407;44.966;19.622;2023-12-07T14:14:40;18.80;;;12.07;;
80101;SDS011;69407;44.966;19.622;2023-12-07T14:17:06;26.35;;;13.20;;
80101;SDS011;69407;44.966;19.622;2023-12-07T14:19:31;26.42;;;14.50;;
80101;SDS011;69407;44.966;19.622;2023-12-07T14:21:57;14.15;;;8.57;;